Time;durP1;ratioP1;P1;durP2;ratioP2;P2;SDS_P1;SDS_P2;PMS_P1;PMS_P2;Temp;Humidity;BMP_temperature;BMP_pressure;BME280_temperature;BME280_humidity;BME280_pressure;Samples;Min_cycle;Max_cycle;Signal;HPM_P1;HPM_P2
2022/01/09 00:00:21;;;;;;;27.60;4.40;;;;;;;6.80;100.00;98892.19;5074766;28;20139;-36
2022/01/09 00:02:50;;;;;;;33.00;5.05;;;;;;;6.78;100.00;98888.94;5070974;28;20052;-35
2022/01/09 00:05:18;;;;;;;27.20;4.88;;;;;;;6.76;100.00;98894.81;5073864;28;20067;-34
2022/01/09 00:07:46;;;;;;;32.50;4.70;;;;;;;6.76;100.00;98908.66;5073922;28;20049;-34
2022/01/09 00:10:14;;;;;;;32.13;4.20;;;;;;;6.74;100.00;98913.72;5074550;28;20036;-30
2022/01/09 00:12:42;;;;;;;32.58;4.45;;;;;;;6.75;100.00;98914.53;5073431;28;20048;-34
2022/01/09 00:15:11;;;;;;;36.55;4.90;;;;;;;6.74;100.00;98912.91;5073781;28;20048;-38
2022/01/09 00:17:39;;;;;;;28.55;4.50;;;;;;;6.75;100.00;98922.84;5073811;28;20047;-33
2022/01/09 00:20:10;;;;;;;38.05;5.18;;;;;;;6.77;100.00;98923.34;5073497;28;20048;-41
2022/01/09 00:22:44;;;;;;;39.67;5.00;;;;;;;6.78;100.00;98928.56;5074101;28;20124;-36
2022/01/09 00:25:13;;;;;;;30.25;4.70;;;;;;;6.78;100.00;98941.63;5074298;28;20528;-34
2022/01/09 00:27:40;;;;;;;38.45;5.32;;;;;;;6.78;100.00;98931.34;5072538;28;20048;-34
2022/01/09 00:30:11;;;;;;;36.00;5.03;;;;;;;6.78;100.00;98941.63;5073667;28;20052;-36
2022/01/09 00:32:39;;;;;;;28.80;5.10;;;;;;;6.79;100.00;98946.03;5072838;28;20059;-35
2022/01/09 00:35:09;;;;;;;32.55;4.78;;;;;;;6.79;100.00;98943.25;5073988;28;20052;-37
2022/01/09 00:37:38;;;;;;;32.83;4.07;;;;;;;6.80;100.00;98947.63;5073497;28;20055;-30
2022/01/09 00:40:08;;;;;;;30.17;4.20;;;;;;;6.82;100.00;98957.25;5072418;28;20048;-40
2022/01/09 00:42:35;;;;;;;30.85;3.92;;;;;;;6.80;100.00;98961.50;5073287;28;20127;-38
2022/01/09 00:45:05;;;;;;;31.27;4.53;;;;;;;6.82;100.00;98953.66;5074053;28;20040;-32
2022/01/09 00:47:33;;;;;;;28.30;3.72;;;;;;;6.83;100.00;98963.63;5072815;28;20056;-37
2022/01/09 00:50:00;;;;;;;30.65;5.55;;;;;;;6.84;100.00;98962.50;5073209;28;20059;-34
2022/01/09 00:52:30;;;;;;;33.47;4.85;;;;;;;6.85;100.00;98980.75;5072937;28;20557;-37
2022/01/09 00:54:57;;;;;;;27.67;4.35;;;;;;;6.85;100.00;98987.13;5069997;28;20564;-37
2022/01/09 00:57:25;;;;;;;35.30;4.03;;;;;;;6.86;100.00;98980.44;5073008;28;20121;-39
2022/01/09 00:59:53;;;;;;;29.65;4.45;;;;;;;6.84;100.00;98987.44;5073083;28;20505;-36
2022/01/09 01:02:20;;;;;;;28.58;4.28;;;;;;;6.83;100.00;98994.13;5072329;28;20045;-36
2022/01/09 01:04:51;;;;;;;33.92;4.15;;;;;;;6.81;100.00;98999.16;5072901;28;20114;-37
2022/01/09 01:07:20;;;;;;;33.33;3.90;;;;;;;6.79;100.00;99005.06;5073579;28;20056;-37
2022/01/09 01:09:49;;;;;;;28.05;3.90;;;;;;;6.79;100.00;99010.59;5071909;28;20052;-36
2022/01/09 01:12:16;;;;;;;29.10;3.95;;;;;;;6.79;100.00;99016.16;5072777;28;20049;-38
2022/01/09 01:14:45;;;;;;;35.03;5.38;;;;;;;6.79;100.00;99031.97;5071741;28;20070;-36
2022/01/09 01:17:14;;;;;;;29.65;4.53;;;;;;;6.77;100.00;99029.50;5072692;28;20049;-37
2022/01/09 01:19:41;;;;;;;26.50;3.60;;;;;;;6.78;100.00;99024.78;5072580;28;20516;-37
2022/01/09 01:22:28;;;;;;;34.50;4.47;;;;;;;6.75;100.00;99026.22;5072158;28;20401;-40
2022/01/09 01:24:58;;;;;;;21.92;3.53;;;;;;;6.76;100.00;99038.94;5072433;28;20052;-38
2022/01/09 01:27:26;;;;;;;28.25;3.88;;;;;;;6.75;100.00;99042.03;5072918;28;20064;-37
2022/01/09 01:29:54;;;;;;;28.33;3.90;;;;;;;6.75;100.00;99044.81;5071283;28;20045;-38
2022/01/09 01:32:23;;;;;;;25.50;3.83;;;;;;;6.75;100.00;99058.66;5072578;28;20048;-34
2022/01/09 01:34:51;;;;;;;25.65;3.60;;;;;;;6.73;100.00;99052.63;5072356;28;20076;-40
2022/01/09 01:37:19;;;;;;;22.25;3.65;;;;;;;6.73;100.00;99063.72;5072222;28;20032;-31
2022/01/09 01:39:47;;;;;;;28.95;3.53;;;;;;;6.73;100.00;99060.94;5072054;28;20036;-33
2022/01/09 01:42:16;;;;;;;24.80;3.60;;;;;;;6.74;100.00;99068.94;5071296;28;20409;-39
2022/01/09 01:44:45;;;;;;;23.45;3.80;;;;;;;6.72;100.00;99070.38;5071670;28;20401;-39
2022/01/09 01:47:15;;;;;;;27.55;3.55;;;;;;;6.70;100.00;99080.97;5069019;28;20109;-37
2022/01/09 01:49:43;;;;;;;23.30;3.00;;;;;;;6.69;100.00;99079.34;5071876;28;20054;-38
2022/01/09 01:52:11;;;;;;;25.75;4.13;;;;;;;6.69;100.00;99094.00;5072346;28;20039;-41
2022/01/09 01:54:42;;;;;;;24.08;3.50;;;;;;;6.70;100.00;99100.38;5071441;28;20048;-35
2022/01/09 01:57:11;;;;;;;18.95;3.08;;;;;;;6.69;100.00;99104.28;5071560;28;20044;-34
2022/01/09 01:59:40;;;;;;;24.48;3.45;;;;;;;6.68;100.00;99094.31;5072260;28;20387;-35
2022/01/09 02:02:07;;;;;;;27.48;3.97;;;;;;;6.68;100.00;99109.00;5071912;28;20495;-41
2022/01/09 02:04:35;;;;;;;25.25;3.53;;;;;;;6.67;100.00;99106.53;5071373;28;20063;-36
2022/01/09 02:07:04;;;;;;;21.48;3.28;;;;;;;6.64;100.00;99110.75;5072018;28;20373;-36
2022/01/09 02:09:31;;;;;;;21.30;3.38;;;;;;;6.63;100.00;99108.31;5072174;28;20060;-33
2022/01/09 02:11:59;;;;;;;21.30;2.97;;;;;;;6.62;100.00;99118.56;5070661;28;20049;-30
2022/01/09 02:14:27;;;;;;;19.95;2.97;;;;;;;6.61;100.00;99118.88;5071666;28;20048;-33
2022/01/09 02:16:56;;;;;;;26.73;3.63;;;;;;;6.60;100.00;99112.53;5071683;28;20517;-38
2022/01/09 02:19:24;;;;;;;15.75;2.58;;;;;;;6.59;100.00;99115.63;5071149;28;20051;-36
2022/01/09 02:21:54;;;;;;;21.33;3.08;;;;;;;6.59;100.00;99126.72;5071416;28;20052;-35
2022/01/09 02:24:25;;;;;;;19.48;2.80;;;;;;;6.55;100.00;99124.56;5072062;28;20075;-31
2022/01/09 02:26:53;;;;;;;15.63;2.47;;;;;;;6.53;100.00;99132.38;5069998;28;20048;-33
2022/01/09 02:29:21;;;;;;;22.73;3.13;;;;;;;6.51;100.00;99139.38;5071829;28;20044;-35
2022/01/09 02:31:48;;;;;;;15.68;2.55;;;;;;;6.48;100.00;99138.03;5071782;28;20401;-38
2022/01/09 02:34:16;;;;;;;14.00;2.65;;;;;;;6.46;100.00;99140.31;5071082;28;20040;-37
2022/01/09 02:36:44;;;;;;;19.05;3.25;;;;;;;6.44;100.00;99141.75;5071370;28;20047;-39
2022/01/09 02:39:13;;;;;;;17.17;2.70;;;;;;;6.43;100.00;99149.25;5070741;28;20041;-40
2022/01/09 02:41:41;;;;;;;21.77;3.33;;;;;;;6.42;100.00;99158.69;5071325;28;20487;-40
2022/01/09 02:44:10;;;;;;;25.15;3.50;;;;;;;6.43;100.00;99170.59;5071547;28;20044;-32
2022/01/09 02:46:51;;;;;;;20.80;3.00;;;;;;;6.42;100.00;99166.19;5070577;28;20087;-36
2022/01/09 02:49:19;;;;;;;20.13;2.88;;;;;;;6.42;100.00;99172.53;5071281;28;20048;-37
2022/01/09 02:51:47;;;;;;;14.65;2.22;;;;;;;6.35;100.00;99169.41;5071162;28;20055;-30
2022/01/09 02:56:57;;;;;;;14.65;1.88;;;;;;;6.16;100.00;99179.81;5027066;28;20092;-37
2022/01/09 02:59:25;;;;;;;10.23;1.48;;;;;;;6.10;100.00;99190.19;5071359;28;20176;-35
2022/01/09 03:01:53;;;;;;;13.20;1.80;;;;;;;6.07;100.00;99198.28;5070350;28;20048;-34
2022/01/09 03:04:20;;;;;;;15.05;2.22;;;;;;;6.06;100.00;99191.09;5070842;28;20048;-36
2022/01/09 03:06:48;;;;;;;17.45;2.70;;;;;;;6.07;100.00;99210.19;5070396;28;20063;-37
2022/01/09 03:09:18;;;;;;;19.27;2.72;;;;;;;6.08;100.00;99208.22;5069915;28;20048;-35
2022/01/09 03:11:47;;;;;;;15.00;2.00;;;;;;;6.10;100.00;99214.28;5052670;28;20052;-36
2022/01/09 03:14:15;;;;;;;20.02;2.75;;;;;;;6.14;100.00;99209.75;5070068;28;20405;-38
2022/01/09 03:16:42;;;;;;;23.95;3.10;;;;;;;6.17;100.00;99217.47;5070969;28;20436;-38
2022/01/09 03:19:10;;;;;;;11.00;1.90;;;;;;;6.14;100.00;99232.75;5069998;28;20047;-38
2022/01/09 03:21:38;;;;;;;16.60;2.22;;;;;;;6.11;100.00;99243.63;5069905;28;20058;-36
2022/01/09 03:24:06;;;;;;;12.20;1.77;;;;;;;6.04;100.00;99238.47;5070137;28;20047;-40
2022/01/09 03:26:35;;;;;;;12.27;2.15;;;;;;;6.00;100.00;99247.72;5071066;28;20059;-35
2022/01/09 03:29:02;;;;;;;13.25;2.65;;;;;;;5.96;100.00;99252.25;5068385;28;20499;-42
2022/01/09 03:31:30;;;;;;;12.70;2.28;;;;;;;5.94;100.00;99254.50;5071081;28;20052;-36
2022/01/09 03:33:58;;;;;;;14.25;1.92;;;;;;;5.91;100.00;99255.09;5070364;28;20424;-36
2022/01/09 03:36:25;;;;;;;25.63;3.08;;;;;;;5.90;100.00;99264.53;5069961;28;20512;-36
2022/01/09 03:38:53;;;;;;;13.23;2.03;;;;;;;5.86;100.00;99261.53;5070515;28;20516;-34
2022/01/09 03:41:21;;;;;;;15.98;2.15;;;;;;;5.86;100.00;99267.88;5070864;28;20504;-32
2022/01/09 03:43:50;;;;;;;13.07;2.03;;;;;;;5.86;100.00;99276.19;5069405;28;20524;-39
2022/01/09 03:46:18;;;;;;;19.88;2.72;;;;;;;5.87;100.00;99275.06;5070838;28;20041;-41
2022/01/09 03:48:46;;;;;;;21.80;2.80;;;;;;;5.91;100.00;99268.94;5070555;28;20052;-33
2022/01/09 03:51:13;;;;;;;14.13;2.17;;;;;;;5.92;100.00;99276.94;5069669;28;20422;-37
2022/01/09 03:53:41;;;;;;;17.75;3.03;;;;;;;5.95;100.00;99289.34;5070263;28;20044;-33
2022/01/09 03:56:09;;;;;;;13.63;2.03;;;;;;;5.96;100.00;99277.16;5070254;28;20052;-34
2022/01/09 03:58:36;;;;;;;16.95;2.03;;;;;;;5.97;100.00;99282.41;5070161;28;20127;-40
2022/01/09 04:01:06;;;;;;;17.55;2.78;;;;;;;6.00;100.00;99289.22;5070490;28;20055;-34
2022/01/09 04:03:34;;;;;;;12.85;2.13;;;;;;;6.01;100.00;99288.09;5070076;28;20040;-34
2022/01/09 04:06:02;;;;;;;15.10;2.95;;;;;;;6.01;100.00;99305.53;5070125;28;20559;-35
2022/01/09 04:08:31;;;;;;;21.23;2.72;;;;;;;6.01;100.00;99311.09;5070009;28;20056;-37
2022/01/09 04:10:59;;;;;;;17.00;2.50;;;;;;;6.03;100.00;99313.53;5069154;28;20053;-38
2022/01/09 04:13:29;;;;;;;15.02;2.92;;;;;;;6.02;100.00;99323.78;5070392;28;20060;-35
2022/01/09 04:15:57;;;;;;;14.43;2.42;;;;;;;6.02;100.00;99322.97;5069909;28;20482;-36
2022/01/09 04:18:28;;;;;;;17.48;2.47;;;;;;;6.03;100.00;99327.38;5072057;28;20041;-38
2022/01/09 04:20:56;;;;;;;16.27;2.58;;;;;;;6.02;100.00;99320.22;5073951;28;20040;-35
2022/01/09 04:23:23;;;;;;;15.95;2.38;;;;;;;6.03;100.00;99319.09;5074205;28;20052;-37
2022/01/09 04:25:51;;;;;;;16.75;2.60;;;;;;;6.03;100.00;99330.16;5071321;28;20052;-34
2022/01/09 04:28:19;;;;;;;21.58;3.08;;;;;;;6.03;100.00;99335.69;5073789;28;20140;-39
2022/01/09 04:30:47;;;;;;;17.58;2.72;;;;;;;6.04;100.00;99342.88;5073980;28;20037;-36
2022/01/09 04:33:15;;;;;;;14.48;2.40;;;;;;;6.05;100.00;99350.06;5072855;28;20063;-36
2022/01/09 04:35:44;;;;;;;16.13;2.67;;;;;;;6.05;100.00;99342.56;5073668;28;20036;-42
2022/01/09 04:38:12;;;;;;;17.63;2.70;;;;;;;6.06;100.00;99351.69;5073932;28;20044;-31
2022/01/09 04:40:40;;;;;;;18.92;2.50;;;;;;;6.08;100.00;99355.00;5072324;28;20047;-34
2022/01/09 04:43:10;;;;;;;18.33;2.80;;;;;;;6.08;100.00;99355.81;5073287;28;20040;-39
2022/01/09 04:45:38;;;;;;;21.95;2.92;;;;;;;6.10;100.00;99363.81;5072745;28;20045;-35
2022/01/09 04:48:08;;;;;;;17.33;2.30;;;;;;;6.11;100.00;99373.75;5073690;28;20044;-37
2022/01/09 04:50:37;;;;;;;17.17;2.35;;;;;;;6.09;100.00;99370.47;5073536;28;20052;-38
2022/01/09 04:53:08;;;;;;;13.88;2.30;;;;;;;6.09;100.00;99376.84;5073164;28;20071;-35
2022/01/09 04:55:38;;;;;;;17.10;2.50;;;;;;;6.06;100.00;99377.44;5072949;28;20067;-38
2022/01/09 04:58:06;;;;;;;16.60;2.65;;;;;;;6.04;100.00;99387.19;5071375;28;20052;-36
2022/01/09 05:00:34;;;;;;;14.57;2.90;;;;;;;6.03;100.00;99389.13;5072258;28;20299;-38
2022/01/09 05:03:02;;;;;;;21.25;2.90;;;;;;;6.04;100.00;99399.06;5072857;28;20048;-38
2022/01/09 05:05:30;;;;;;;12.90;2.70;;;;;;;6.00;100.00;99392.50;5055147;28;20041;-37
2022/01/09 05:07:58;;;;;;;17.13;2.78;;;;;;;6.00;100.00;99408.28;5068569;28;20041;-38
2022/01/09 05:10:27;;;;;;;20.00;2.35;;;;;;;5.98;100.00;99405.84;5073029;28;20060;-34
2022/01/09 05:12:55;;;;;;;23.67;2.60;;;;;;;5.97;100.00;99409.75;5072620;28;20056;-39
2022/01/09 05:15:24;;;;;;;13.57;2.22;;;;;;;5.97;100.00;99409.75;5072162;28;20098;-35
2022/01/09 05:17:57;;;;;;;15.23;2.42;;;;;;;5.96;100.00;99405.34;5072736;28;20596;-34
2022/01/09 05:20:25;;;;;;;16.55;2.72;;;;;;;5.94;100.00;99415.06;5073343;28;20044;-35
2022/01/09 05:22:53;;;;;;;15.35;2.33;;;;;;;5.94;100.00;99424.19;5071295;28;20390;-42
2022/01/09 05:25:21;;;;;;;14.82;2.15;;;;;;;5.95;100.00;99425.03;5072944;28;20040;-35
2022/01/09 05:27:50;;;;;;;16.38;2.30;;;;;;;5.96;100.00;99437.75;5071792;28;20044;-33
2022/01/09 05:30:18;;;;;;;11.27;2.30;;;;;;;5.97;100.00;99448.50;5071898;28;20052;-37
2022/01/09 05:32:45;;;;;;;15.25;2.53;;;;;;;5.98;100.00;99444.63;5072125;28;20406;-30
2022/01/09 05:35:15;;;;;;;17.60;2.90;;;;;;;5.99;100.00;99439.91;5071929;28;20079;-39
2022/01/09 05:37:42;;;;;;;20.10;2.47;;;;;;;5.99;100.00;99440.72;5071948;28;20110;-39
2022/01/09 05:40:11;;;;;;;19.42;2.70;;;;;;;6.00;100.00;99447.06;5072706;28;20040;-35
2022/01/09 05:42:39;;;;;;;15.70;2.10;;;;;;;6.02;100.00;99450.34;5071746;28;20045;-35
2022/01/09 05:45:10;;;;;;;23.35;2.95;;;;;;;6.02;100.00;99453.94;5072762;28;20047;-36
2022/01/09 05:47:38;;;;;;;16.40;2.22;;;;;;;6.02;100.00;99462.25;5072473;28;20044;-34
2022/01/09 05:50:06;;;;;;;18.33;2.58;;;;;;;6.02;100.00;99456.72;5071356;28;20056;-36
2022/01/09 05:52:34;;;;;;;17.17;2.30;;;;;;;6.00;100.00;99449.81;5072019;28;20135;-33
2022/01/09 05:55:02;;;;;;;15.15;2.20;;;;;;;6.00;100.00;99458.13;5072165;28;20041;-35
2022/01/09 05:57:30;;;;;;;15.38;1.90;;;;;;;5.97;100.00;99456.00;5070970;28;20048;-40
2022/01/09 05:59:57;;;;;;;15.75;2.47;;;;;;;5.95;100.00;99463.78;5071747;28;20049;-40
2022/01/09 06:02:26;;;;;;;18.50;2.35;;;;;;;5.92;100.00;99467.16;5054372;28;20056;-33
2022/01/09 06:04:54;;;;;;;15.48;2.17;;;;;;;5.90;100.00;99466.63;5070957;28;20060;-39
2022/01/09 06:07:22;;;;;;;15.52;2.67;;;;;;;5.90;100.00;99480.47;5072290;28;20520;-37
2022/01/09 06:09:50;;;;;;;12.77;2.17;;;;;;;5.86;100.00;99492.09;5070396;28;20045;-31
2022/01/09 06:12:17;;;;;;;16.77;2.03;;;;;;;5.83;100.00;99484.41;5070530;28;20498;-35
2022/01/09 06:14:45;;;;;;;19.63;2.17;;;;;;;5.83;100.00;99497.41;5070648;28;20071;-39
2022/01/09 06:17:13;;;;;;;17.63;2.25;;;;;;;5.84;100.00;99499.88;5069958;28;20045;-36
2022/01/09 06:19:42;;;;;;;16.33;2.20;;;;;;;5.82;100.00;99513.19;5070438;28;20080;-33
2022/01/09 06:22:09;;;;;;;16.05;2.63;;;;;;;5.82;100.00;99517.91;5070327;28;20052;-31
2022/01/09 06:24:37;;;;;;;16.90;2.70;;;;;;;5.83;100.00;99522.34;5069899;28;20135;-36
2022/01/09 06:27:06;;;;;;;14.13;2.28;;;;;;;5.83;100.00;99534.22;5068820;28;20448;-30
2022/01/09 06:29:34;;;;;;;18.33;2.10;;;;;;;5.83;100.00;99531.47;5070598;28;20032;-39
2022/01/09 06:32:01;;;;;;;13.77;2.65;;;;;;;5.84;100.00;99532.28;5069616;28;20049;-40
2022/01/09 06:34:29;;;;;;;11.95;2.30;;;;;;;5.83;100.00;99538.94;5070090;28;20055;-41
2022/01/09 06:36:58;;;;;;;10.57;2.00;;;;;;;5.82;100.00;99540.88;5070525;28;20075;-38
2022/01/09 06:39:26;;;;;;;13.05;2.10;;;;;;;5.80;100.00;99537.59;5069439;28;20044;-36
2022/01/09 06:41:53;;;;;;;12.60;2.17;;;;;;;5.79;100.00;99540.69;5070373;28;20044;-32
2022/01/09 06:44:21;;;;;;;18.58;2.30;;;;;;;5.77;100.00;99554.81;5070012;28;20044;-38
2022/01/09 06:46:49;;;;;;;16.25;2.40;;;;;;;5.76;100.00;99546.81;5069156;28;20063;-34
2022/01/09 06:49:17;;;;;;;15.02;2.60;;;;;;;5.75;100.00;99572.84;5069823;28;20043;-36
2022/01/09 06:51:44;;;;;;;13.40;2.55;;;;;;;5.73;100.00;99575.09;5070215;28;20051;-35
2022/01/09 06:54:14;;;;;;;16.23;2.25;;;;;;;5.75;100.00;99570.09;5069572;28;20051;-34
2022/01/09 06:56:42;;;;;;;16.40;2.47;;;;;;;5.76;100.00;99586.38;5069897;28;20040;-32
2022/01/09 06:59:10;;;;;;;12.35;2.03;;;;;;;5.78;100.00;99586.91;5069736;28;20409;-39
2022/01/09 07:01:38;;;;;;;14.73;1.92;;;;;;;5.75;100.00;99579.22;5069492;28;20056;-37
2022/01/09 07:04:05;;;;;;;15.18;2.85;;;;;;;5.75;100.00;99589.44;5070067;28;20052;-34
2022/01/09 07:06:34;;;;;;;14.07;2.00;;;;;;;5.77;100.00;99599.09;5068595;28;20052;-35
2022/01/09 07:09:02;;;;;;;15.15;2.22;;;;;;;5.77;100.00;99596.34;5069713;28;20037;-33
2022/01/09 07:11:31;;;;;;;18.30;2.50;;;;;;;5.81;100.00;99602.91;5069613;28;20398;-33
2022/01/09 07:13:59;;;;;;;14.82;2.72;;;;;;;5.85;100.00;99598.41;5068565;28;20068;-34
2022/01/09 07:16:27;;;;;;;19.13;2.63;;;;;;;5.87;100.00;99598.13;5067663;28;20520;-34
2022/01/09 07:18:54;;;;;;;17.02;2.22;;;;;;;5.85;100.00;99597.59;5068355;28;20044;-35
2022/01/09 07:21:25;;;;;;;13.32;2.20;;;;;;;5.83;100.00;99614.50;5067812;28;20068;-37
2022/01/09 07:23:52;;;;;;;12.45;2.22;;;;;;;5.81;100.00;99633.34;5069408;28;20056;-33
2022/01/09 07:26:20;;;;;;;18.40;2.20;;;;;;;5.80;100.00;99625.34;5067172;28;20048;-33
2022/01/09 07:28:49;;;;;;;14.13;2.03;;;;;;;5.79;100.00;99624.56;5068540;28;20044;-39
2022/01/09 07:31:17;;;;;;;18.40;2.53;;;;;;;5.78;100.00;99628.44;5069588;28;20138;-35
2022/01/09 07:33:45;;;;;;;14.63;1.98;;;;;;;5.78;100.00;99635.91;5069626;28;20047;-36
2022/01/09 07:36:14;;;;;;;16.80;2.28;;;;;;;5.77;100.00;99632.31;5068761;28;20040;-30
2022/01/09 07:38:42;;;;;;;18.55;2.67;;;;;;;5.77;100.00;99640.63;5067967;28;20408;-35
2022/01/09 07:41:12;;;;;;;18.23;2.40;;;;;;;5.77;100.00;99654.47;5069278;28;20044;-34
2022/01/09 07:43:40;;;;;;;14.65;2.30;;;;;;;5.77;100.00;99651.69;5068236;28;20401;-37
2022/01/09 07:46:09;;;;;;;17.50;2.70;;;;;;;5.78;100.00;99664.41;5068532;28;20044;-37
2022/01/09 07:48:37;;;;;;;16.88;2.47;;;;;;;5.82;100.00;99661.84;5067985;28;20044;-35
2022/01/09 07:51:05;;;;;;;17.08;2.17;;;;;;;5.80;100.00;99667.69;5068208;28;20067;-40
2022/01/09 07:53:33;;;;;;;9.27;1.65;;;;;;;5.79;100.00;99668.84;5070282;28;20048;-32
2022/01/09 07:56:01;;;;;;;15.48;2.10;;;;;;;5.78;100.00;99667.19;5070982;28;20496;-37
2022/01/09 07:58:29;;;;;;;16.75;2.58;;;;;;;5.78;100.00;99680.19;5072084;28;20421;-34
2022/01/09 08:00:57;;;;;;;19.52;2.58;;;;;;;5.77;100.00;99682.16;5073618;28;20053;-33
2022/01/09 08:03:26;;;;;;;13.57;2.40;;;;;;;5.76;100.00;99688.81;5072577;28;20052;-32
2022/01/09 08:05:54;;;;;;;12.20;2.00;;;;;;;5.76;100.00;99699.88;5073005;28;20410;-32
2022/01/09 08:08:22;;;;;;;16.95;2.30;;;;;;;5.75;100.00;99691.88;5072752;28;20043;-37
2022/01/09 08:10:50;;;;;;;14.57;2.90;;;;;;;5.74;100.00;99695.75;5072555;28;20168;-36
2022/01/09 08:13:17;;;;;;;15.48;2.03;;;;;;;5.73;100.00;99699.63;5072562;28;20493;-35
2022/01/09 08:15:45;;;;;;;13.88;2.10;;;;;;;5.72;100.00;99695.22;5073590;28;20055;-35
2022/01/09 08:18:13;;;;;;;12.07;2.35;;;;;;;5.73;100.00;99706.00;5072044;28;20033;-38
2022/01/09 08:20:42;;;;;;;14.77;2.40;;;;;;;5.75;100.00;99719.53;5061587;28;20127;-33
2022/01/09 08:23:10;;;;;;;14.40;2.35;;;;;;;5.75;100.00;99723.13;5072504;28;20056;-38
2022/01/09 08:25:38;;;;;;;15.70;2.42;;;;;;;5.76;100.00;99724.78;5072007;28;20059;-38
2022/01/09 08:28:05;;;;;;;17.80;2.17;;;;;;;5.75;100.00;99725.06;5070946;28;20052;-37
2022/01/09 08:30:33;;;;;;;17.77;2.25;;;;;;;5.76;100.00;99729.50;5072941;28;20045;-37
2022/01/09 08:33:01;;;;;;;13.75;2.17;;;;;;;5.74;100.00;99721.50;5071072;28;20048;-31
2022/01/09 08:35:29;;;;;;;11.82;2.30;;;;;;;5.77;100.00;99722.84;5072052;28;20053;-36
2022/01/09 08:37:58;;;;;;;16.80;2.20;;;;;;;5.76;100.00;99735.84;5072303;28;20052;-38
2022/01/09 08:40:25;;;;;;;13.82;2.17;;;;;;;5.76;100.00;99733.09;5072673;28;20049;-36
2022/01/09 08:42:54;;;;;;;10.35;1.95;;;;;;;5.77;100.00;99742.22;5072590;28;20517;-30
2022/01/09 08:45:23;;;;;;;15.35;2.47;;;;;;;5.80;100.00;99739.66;5071346;28;20053;-32
2022/01/09 08:47:51;;;;;;;13.02;2.13;;;;;;;5.85;100.00;99739.59;5072279;28;20056;-38
2022/01/09 08:50:20;;;;;;;15.10;2.05;;;;;;;5.92;100.00;99744.00;5071793;28;20099;-40
2022/01/09 08:52:48;;;;;;;8.70;1.77;;;;;;;6.02;100.00;99746.63;5071652;28;20450;-35
2022/01/09 08:55:18;;;;;;;12.77;2.10;;;;;;;6.12;100.00;99747.34;5071921;28;20367;-32
2022/01/09 08:57:46;;;;;;;18.83;2.38;;;;;;;6.20;100.00;99751.38;5072171;28;20123;-33
2022/01/09 09:00:15;;;;;;;13.95;2.03;;;;;;;6.28;100.00;99747.13;5071068;28;20040;-40
2022/01/09 09:02:43;;;;;;;12.20;1.90;;;;;;;6.32;100.00;99751.78;5072143;28;20048;-42
2022/01/09 09:05:11;;;;;;;10.52;1.95;;;;;;;6.32;100.00;99760.09;5069363;28;20326;-41
2022/01/09 09:07:38;;;;;;;11.23;2.00;;;;;;;6.28;100.00;99770.13;5071736;28;20083;-35
2022/01/09 09:10:08;;;;;;;15.82;2.47;;;;;;;6.24;100.00;99774.59;5071800;28;20048;-34
2022/01/09 09:12:37;;;;;;;15.98;2.42;;;;;;;6.20;100.00;99784.59;5072363;28;20151;-34
2022/01/09 09:15:07;;;;;;;12.98;1.80;;;;;;;6.17;100.00;99774.16;5070667;28;20045;-35
2022/01/09 09:17:35;;;;;;;8.23;1.40;;;;;;;6.14;100.00;99786.63;5060776;28;20044;-38
2022/01/09 09:20:04;;;;;;;11.38;1.80;;;;;;;6.14;100.00;99789.41;5070620;28;20048;-36
2022/01/09 09:22:32;;;;;;;9.48;1.48;;;;;;;6.14;100.00;99791.34;5072221;28;20052;-34
2022/01/09 09:25:00;;;;;;;8.35;1.65;;;;;;;6.17;100.00;99796.31;5070714;28;20052;-37
2022/01/09 09:27:30;;;;;;;9.77;1.45;;;;;;;6.20;100.00;99788.22;5067712;28;20078;-37
2022/01/09 09:30:02;;;;;;;14.35;1.80;;;;;;;6.25;100.00;99801.16;5072234;28;20043;-39
2022/01/09 09:32:30;;;;;;;13.18;1.73;;;;;;;6.26;100.00;99805.59;5070676;28;20052;-33
2022/01/09 09:34:58;;;;;;;12.63;2.10;;;;;;;6.30;100.00;99803.88;5069479;28;20052;-31
2022/01/09 09:37:28;;;;;;;13.20;2.63;;;;;;;6.32;100.00;99815.50;5071237;28;20050;-35
2022/01/09 09:39:56;;;;;;;15.30;1.70;;;;;;;6.30;100.00;99811.38;5071370;28;20551;-36
2022/01/09 09:42:24;;;;;;;17.23;2.63;;;;;;;6.27;100.00;99821.09;5070531;28;20136;-35
2022/01/09 09:44:52;;;;;;;14.98;1.90;;;;;;;6.25;100.00;99819.75;5071354;28;20045;-40
2022/01/09 09:47:22;;;;;;;18.40;2.47;;;;;;;6.22;100.00;99821.97;5071197;28;20052;-34
2022/01/09 09:49:50;;;;;;;15.68;2.10;;;;;;;6.18;100.00;99817.34;5069555;28;20087;-35
2022/01/09 09:52:19;;;;;;;12.75;2.30;;;;;;;6.17;100.00;99826.78;5070729;28;20449;-33
2022/01/09 09:54:48;;;;;;;11.25;1.92;;;;;;;6.20;100.00;99834.47;5071149;28;20074;-40
2022/01/09 09:57:16;;;;;;;15.57;2.00;;;;;;;6.35;100.00;99830.72;5068655;28;20052;-37
2022/01/09 09:59:44;;;;;;;16.83;2.25;;;;;;;6.65;100.00;99835.00;5071132;28;20048;-38
2022/01/09 10:02:15;;;;;;;14.93;2.25;;;;;;;6.91;100.00;99836.28;5070052;28;20040;-36
2022/01/09 10:05:00;;;;;;;18.15;3.17;;;;;;;7.07;100.00;99839.66;5071174;28;20052;-36
2022/01/09 10:07:28;;;;;;;16.60;2.20;;;;;;;7.09;100.00;99834.63;5070963;28;20421;-33
2022/01/09 10:09:58;;;;;;;14.13;2.30;;;;;;;7.26;100.00;99840.47;5070133;28;20059;-33
2022/01/09 10:12:28;;;;;;;14.68;1.98;;;;;;;7.58;100.00;99842.44;5070406;28;20075;-36
2022/01/09 10:14:58;;;;;;;16.50;2.28;;;;;;;7.88;100.00;99841.03;5070738;28;20044;-39
2022/01/09 10:17:27;;;;;;;20.13;2.80;;;;;;;8.08;100.00;99837.06;5069585;28;20052;-40
2022/01/09 10:19:57;;;;;;;11.25;1.85;;;;;;;8.17;100.00;99855.50;5070831;28;20080;-39
2022/01/09 10:22:30;;;;;;;13.02;1.98;;;;;;;8.12;100.00;99852.81;5070576;28;20509;-39
2022/01/09 10:25:15;;;;;;;18.20;2.28;;;;;;;8.23;100.00;99851.47;5070126;28;20048;-39
2022/01/09 10:27:44;;;;;;;15.18;2.20;;;;;;;8.44;100.00;99859.41;5065935;28;20083;-36
2022/01/09 10:30:12;;;;;;;13.50;1.83;;;;;;;8.54;100.00;99865.63;5070018;28;20517;-36
2022/01/09 10:32:40;;;;;;;12.10;1.90;;;;;;;8.60;100.00;99866.31;5070093;28;20055;-39
2022/01/09 10:35:14;;;;;;;9.55;1.65;;;;;;;8.62;100.00;99867.66;5070433;28;20481;-40
2022/01/09 10:37:46;;;;;;;12.30;2.15;;;;;;;8.73;100.00;99870.22;5069564;28;20406;-35
2022/01/09 10:40:21;;;;;;;10.97;1.90;;;;;;;8.95;100.00;99864.72;5070521;28;20051;-42
2022/01/09 10:43:02;;;;;;;11.65;2.10;;;;;;;9.19;100.00;99881.16;5070244;28;20052;-40
2022/01/09 10:45:31;;;;;;;11.65;1.90;;;;;;;9.40;100.00;99878.69;5069667;28;20055;-41
2022/01/09 10:48:04;;;;;;;11.90;1.98;;;;;;;9.52;100.00;99882.56;5069848;28;20044;-37
2022/01/09 10:50:37;;;;;;;12.52;2.17;;;;;;;9.49;100.00;99885.16;5070550;28;20053;-35
2022/01/09 10:53:18;;;;;;;;;;;;;;;9.35;100.00;99878.81;5069579;28;20405;-31
2022/01/09 10:55:48;;;;;;;11.75;1.88;;;;;;;9.18;100.00;99885.06;5070552;28;20278;-43
2022/01/09 10:58:21;;;;;;;14.07;2.45;;;;;;;9.03;100.00;99899.31;5069749;28;20044;-34
2022/01/09 11:01:07;;;;;;;13.65;2.28;;;;;;;8.86;100.00;99903.56;5070238;28;20048;-38
2022/01/09 11:03:35;;;;;;;9.80;1.90;;;;;;;8.63;100.00;99908.22;5070031;28;20375;-34
2022/01/09 11:06:04;;;;;;;13.77;2.50;;;;;;;8.48;100.00;99910.50;5069814;28;20040;-33
2022/01/09 11:08:35;;;;;;;14.75;2.40;;;;;;;8.33;100.00;99908.84;5069811;28;20056;-35
2022/01/09 11:11:07;;;;;;;17.58;2.83;;;;;;;8.21;100.00;99928.75;5070381;28;20044;-38
2022/01/09 11:13:37;;;;;;;20.70;3.10;;;;;;;8.11;100.00;99923.41;5069610;28;20045;-41
2022/01/09 11:18:52;;;;;;;17.50;2.20;;;;;;;7.94;100.00;99929.53;5069874;28;20040;-33
2022/01/09 11:21:20;;;;;;;18.80;2.92;;;;;;;7.91;100.00;99935.69;5068704;28;20071;-34
2022/01/09 11:24:03;;;;;;;19.48;2.50;;;;;;;7.89;100.00;99934.34;5069748;28;20481;-36
2022/01/09 11:26:41;;;;;;;14.90;2.28;;;;;;;7.88;100.00;99936.31;5064227;28;20052;-36
2022/01/09 11:29:12;;;;;;;12.70;2.58;;;;;;;7.93;100.00;99947.34;5069255;28;20036;-34
2022/01/09 11:31:53;;;;;;;18.08;2.75;;;;;;;8.02;100.00;99953.00;5069732;28;20131;-33
2022/01/09 11:34:28;;;;;;;13.38;2.25;;;;;;;8.05;100.00;99962.69;5068589;28;20040;-33
2022/01/09 11:37:06;;;;;;;13.00;1.92;;;;;;;8.05;100.00;99965.47;5070258;28;20102;-38
2022/01/09 11:39:36;;;;;;;16.25;2.30;;;;;;;8.00;100.00;99965.53;5066687;28;20399;-32